createdAt,value
2023-04-23T00:00:24.478Z,12.43
2023-04-23T00:02:53.974Z,12.18
2023-04-23T00:05:20.896Z,12.93
2023-04-23T00:07:48.029Z,13.70
2023-04-23T00:10:15.165Z,11.23
2023-04-23T00:12:42.171Z,11.65
2023-04-23T00:15:10.240Z,12.48
2023-04-23T00:17:38.466Z,12.82
2023-04-23T00:20:06.572Z,12.07
2023-04-23T00:22:33.128Z,12.93
2023-04-23T00:24:59.692Z,13.48
2023-04-23T00:27:26.354Z,13.30
2023-04-23T00:29:53.084Z,12.13
2023-04-23T00:32:19.683Z,12.52
2023-04-23T00:34:47.778Z,12.73
2023-04-23T00:37:14.416Z,12.55
2023-04-23T00:39:41.129Z,13.43
2023-04-23T00:42:08.002Z,12.00
2023-04-23T00:44:34.650Z,11.90
2023-04-23T00:47:01.599Z,13.18
2023-04-23T00:49:28.703Z,12.40
2023-04-23T00:51:56.711Z,12.18
2023-04-23T00:54:23.371Z,12.30
2023-04-23T00:56:50.315Z,13.52
2023-04-23T00:59:17.199Z,12.23
2023-04-23T01:01:44.091Z,12.18
2023-04-23T01:04:11.956Z,12.63
2023-04-23T01:06:38.976Z,12.75
2023-04-23T01:09:07.862Z,14.15
2023-04-23T01:11:34.522Z,13.15
2023-04-23T01:14:01.768Z,13.48
2023-04-23T01:16:28.397Z,13.07
2023-04-23T01:18:55.376Z,12.23
2023-04-23T01:21:23.187Z,12.18
2023-04-23T01:23:51.208Z,12.55
2023-04-23T01:26:17.894Z,12.90
2023-04-23T01:28:45.035Z,12.45
2023-04-23T01:31:11.800Z,11.35
2023-04-23T01:33:38.847Z,11.80
2023-04-23T01:36:06.104Z,13.32
2023-04-23T01:38:34.051Z,12.07
2023-04-23T01:41:02.100Z,12.77
2023-04-23T01:43:29.078Z,12.10
2023-04-23T01:45:55.674Z,13.25
2023-04-23T01:48:23.822Z,13.45
2023-04-23T01:50:51.180Z,11.98
2023-04-23T01:53:18.096Z,11.80
2023-04-23T01:55:46.756Z,11.82
2023-04-23T01:58:14.762Z,13.18
2023-04-23T02:00:41.553Z,11.38
2023-04-23T02:03:08.363Z,12.10
2023-04-23T02:05:40.871Z,12.52
2023-04-23T02:08:09.179Z,12.07
2023-04-23T02:10:36.175Z,11.30
2023-04-23T02:13:03.515Z,12.45
2023-04-23T02:15:31.781Z,13.20
2023-04-23T02:17:59.883Z,13.13
2023-04-23T02:20:26.495Z,13.52
2023-04-23T02:22:53.078Z,12.85
2023-04-23T02:25:19.759Z,13.02
2023-04-23T02:27:46.387Z,13.98
2023-04-23T02:30:13.308Z,12.27
2023-04-23T02:32:41.389Z,11.98
2023-04-23T02:35:08.785Z,13.15
2023-04-23T02:37:35.828Z,11.70
2023-04-23T02:40:02.642Z,12.90
2023-04-23T02:42:29.238Z,12.65
2023-04-23T02:44:55.782Z,12.55
2023-04-23T02:47:22.583Z,13.23
2023-04-23T02:49:50.644Z,12.68
2023-04-23T02:52:17.346Z,12.63
2023-04-23T02:54:43.894Z,13.18
2023-04-23T02:57:10.685Z,13.07
2023-04-23T02:59:37.350Z,13.43
2023-04-23T03:02:04.254Z,13.90
2023-04-23T03:04:31.345Z,15.02
2023-04-23T03:06:59.523Z,14.15
2023-04-23T03:09:26.213Z,14.60
2023-04-23T03:11:53.101Z,14.48
2023-04-23T03:14:19.670Z,15.32
2023-04-23T03:16:46.531Z,15.10
2023-04-23T03:19:13.212Z,15.25
2023-04-23T03:21:39.817Z,16.02
2023-04-23T03:24:12.395Z,14.55
2023-04-23T03:26:39.044Z,15.23
2023-04-23T03:29:05.595Z,15.10
2023-04-23T03:31:32.487Z,13.98
2023-04-23T03:33:59.829Z,15.35
2023-04-23T03:36:32.118Z,15.55
2023-04-23T03:38:59.728Z,14.82
2023-04-23T03:41:33.512Z,14.18
2023-04-23T03:44:01.106Z,14.98
2023-04-23T03:46:39.098Z,13.75
2023-04-23T03:49:05.921Z,13.50
2023-04-23T03:51:32.580Z,15.85
2023-04-23T03:53:59.197Z,14.10
2023-04-23T03:56:39.551Z,15.88
2023-04-23T03:59:26.383Z,14.35
2023-04-23T04:01:55.986Z,14.70
2023-04-23T04:04:25.442Z,14.55
2023-04-23T04:06:52.272Z,14.82
2023-04-23T04:09:18.860Z,14.27
2023-04-23T04:11:46.717Z,13.18
2023-04-23T04:14:13.427Z,14.45
2023-04-23T04:16:40.846Z,12.05
2023-04-23T04:19:07.609Z,12.48
2023-04-23T04:21:34.126Z,14.63
2023-04-23T04:24:00.716Z,12.43
2023-04-23T04:26:27.550Z,12.20
2023-04-23T04:28:55.465Z,13.27
2023-04-23T04:31:22.268Z,12.02
2023-04-23T04:33:48.826Z,11.82
2023-04-23T04:36:15.322Z,12.25
2023-04-23T04:38:42.074Z,11.75
2023-04-23T04:41:08.647Z,12.88
2023-04-23T04:43:35.453Z,11.85
2023-04-23T04:46:05.329Z,11.40
2023-04-23T04:48:33.755Z,12.45
2023-04-23T04:51:00.293Z,11.95
2023-04-23T04:53:26.884Z,11.70
2023-04-23T04:55:53.424Z,11.88
2023-04-23T04:58:20.158Z,11.45
2023-04-23T05:00:47.124Z,11.55
2023-04-23T05:03:15.235Z,11.63
2023-04-23T05:05:42.738Z,11.15
2023-04-23T05:08:09.509Z,11.52
2023-04-23T05:10:36.231Z,10.95
2023-04-23T05:13:02.900Z,11.30
2023-04-23T05:15:29.686Z,10.93
2023-04-23T05:17:56.611Z,10.90
2023-04-23T05:20:24.629Z,11.35
2023-04-23T05:22:51.263Z,11.10
2023-04-23T05:25:17.932Z,10.13
2023-04-23T05:27:44.758Z,10.05
2023-04-23T05:30:11.998Z,10.90
2023-04-23T05:32:38.701Z,11.68
2023-04-23T05:35:06.455Z,10.73
2023-04-23T05:37:34.877Z,10.27
2023-04-23T05:40:01.646Z,10.45
2023-04-23T05:42:28.605Z,11.00
2023-04-23T05:44:55.173Z,12.15
2023-04-23T05:47:21.851Z,10.82
2023-04-23T05:49:48.435Z,10.20
2023-04-23T05:52:15.472Z,9.77
2023-04-23T05:54:43.627Z,10.20
2023-04-23T05:57:11.111Z,10.23
2023-04-23T05:59:37.719Z,10.10
2023-04-23T06:02:04.399Z,9.82
2023-04-23T06:04:31.304Z,10.52
2023-04-23T06:06:58.740Z,10.10
2023-04-23T06:09:25.396Z,10.35
2023-04-23T06:11:53.418Z,9.77
2023-04-23T06:14:20.122Z,10.40
2023-04-23T06:16:46.793Z,9.60
2023-04-23T06:19:13.553Z,10.73
2023-04-23T06:21:40.351Z,9.68
2023-04-23T06:24:07.394Z,9.82
2023-04-23T06:26:34.031Z,9.73
2023-04-23T06:29:07.957Z,9.50
2023-04-23T06:31:44.330Z,6.78
2023-04-23T06:34:11.022Z,6.78
2023-04-23T06:36:37.836Z,6.15
2023-04-23T06:39:04.506Z,5.90
2023-04-23T06:41:31.056Z,5.97
2023-04-23T06:44:10.644Z,5.32
2023-04-23T06:46:42.569Z,5.63
2023-04-23T06:49:09.136Z,5.40
2023-04-23T06:51:35.733Z,5.28
2023-04-23T06:54:02.420Z,6.25
2023-04-23T06:56:28.990Z,7.75
2023-04-23T06:58:55.558Z,7.30
2023-04-23T07:01:24.323Z,7.07
2023-04-23T07:03:51.521Z,5.70
2023-04-23T07:06:18.212Z,4.95
2023-04-23T07:08:44.833Z,5.13
2023-04-23T07:11:11.898Z,7.80
2023-04-23T07:13:40.819Z,5.82
2023-04-23T07:16:08.477Z,5.38
2023-04-23T07:18:36.564Z,6.07
2023-04-23T07:21:04.368Z,4.88
2023-04-23T07:23:31.264Z,5.15
2023-04-23T07:25:57.819Z,5.05
2023-04-23T07:28:24.999Z,5.70
2023-04-23T07:30:51.558Z,4.20
2023-04-23T07:33:20.707Z,4.55
2023-04-23T07:35:48.877Z,4.05
2023-04-23T07:38:15.457Z,3.67
2023-04-23T07:40:42.029Z,3.85
2023-04-23T07:43:08.898Z,3.60
2023-04-23T07:45:35.448Z,3.80
2023-04-23T07:48:02.211Z,3.55
2023-04-23T07:50:29.487Z,3.17
2023-04-23T07:52:57.549Z,3.70
2023-04-23T07:55:24.228Z,3.13
2023-04-23T07:57:50.843Z,3.60
2023-04-23T08:00:18.056Z,3.42
2023-04-23T08:02:44.834Z,3.28
2023-04-23T08:05:11.652Z,3.17
2023-04-23T08:07:38.512Z,3.60
2023-04-23T08:10:08.084Z,3.38
2023-04-23T08:12:34.739Z,3.60
2023-04-23T08:15:01.690Z,2.90
2023-04-23T08:17:35.073Z,3.35
2023-04-23T08:20:02.030Z,2.88
2023-04-23T08:22:28.625Z,2.60
2023-04-23T08:24:55.494Z,2.75
2023-04-23T08:27:23.442Z,2.33
2023-04-23T08:29:50.077Z,2.70
2023-04-23T08:32:16.662Z,2.50
2023-04-23T08:34:43.336Z,2.58
2023-04-23T08:37:16.558Z,2.53
2023-04-23T08:39:50.163Z,2.20
2023-04-23T08:42:24.236Z,2.35
2023-04-23T08:44:51.752Z,2.55
2023-04-23T08:47:18.850Z,2.00
2023-04-23T08:49:46.505Z,2.22
2023-04-23T08:52:16.433Z,2.05
2023-04-23T08:54:46.261Z,2.38
2023-04-23T08:57:13.926Z,2.00
2023-04-23T08:59:43.050Z,2.22
2023-04-23T09:02:10.634Z,1.95
2023-04-23T09:04:38.132Z,2.30
2023-04-23T09:07:06.525Z,2.30
2023-04-23T09:09:34.574Z,1.77
2023-04-23T09:12:01.212Z,1.73
2023-04-23T09:14:27.897Z,2.15
2023-04-23T09:16:56.008Z,2.58
2023-04-23T09:19:22.979Z,1.90
2023-04-23T09:21:53.403Z,1.75
2023-04-23T09:24:22.505Z,1.73
2023-04-23T09:26:50.497Z,2.13
2023-04-23T09:29:18.510Z,2.10
2023-04-23T09:31:45.476Z,2.13
2023-04-23T09:34:15.268Z,1.60
2023-04-23T09:36:42.487Z,1.90
2023-04-23T09:39:12.345Z,1.92
2023-04-23T09:41:40.469Z,2.03
2023-04-23T09:44:07.391Z,2.10
2023-04-23T09:46:35.357Z,1.60
2023-04-23T09:49:03.190Z,1.90
2023-04-23T09:51:31.249Z,1.83
2023-04-23T09:53:57.927Z,2.13
2023-04-23T09:56:24.704Z,1.52
2023-04-23T09:58:51.215Z,2.08
2023-04-23T10:01:17.751Z,1.30
2023-04-23T10:03:44.821Z,1.30
2023-04-23T10:06:21.698Z,3.63
2023-04-23T10:09:02.489Z,1.55
2023-04-23T10:11:29.832Z,1.42
2023-04-23T10:13:56.723Z,12.65
2023-04-23T10:16:28.523Z,1.48
2023-04-23T10:19:04.600Z,1.27
2023-04-23T10:21:42.621Z,1.35
2023-04-23T10:24:17.729Z,1.10
2023-04-23T10:26:45.294Z,1.30
2023-04-23T10:29:14.722Z,1.20
2023-04-23T10:31:42.855Z,1.30
2023-04-23T10:34:10.465Z,1.30
2023-04-23T10:36:37.694Z,1.30
2023-04-23T10:39:04.455Z,1.10
2023-04-23T10:41:36.152Z,1.42
2023-04-23T10:44:03.315Z,1.13
2023-04-23T10:46:30.783Z,1.20
2023-04-23T10:49:11.223Z,1.10
2023-04-23T10:54:07.567Z,1.05
2023-04-23T10:56:37.455Z,1.10
2023-04-23T10:59:06.324Z,0.95
2023-04-23T11:01:33.164Z,1.23
2023-04-23T11:03:59.910Z,0.80
2023-04-23T11:06:52.531Z,1.20
2023-04-23T11:09:29.987Z,1.05
2023-04-23T11:11:58.432Z,0.98
2023-04-23T11:14:35.589Z,1.10
2023-04-23T11:17:02.231Z,1.08
2023-04-23T11:19:29.191Z,0.80
2023-04-23T11:21:57.029Z,1.00
2023-04-23T11:24:23.801Z,1.10
2023-04-23T11:26:52.215Z,1.30
2023-04-23T11:29:21.885Z,1.17
2023-04-23T11:32:01.514Z,1.00
2023-04-23T11:34:29.691Z,0.95
2023-04-23T11:36:59.298Z,0.93
2023-04-23T11:39:26.148Z,0.90
2023-04-23T11:41:53.402Z,1.38
2023-04-23T11:44:22.171Z,0.90
2023-04-23T11:46:49.165Z,0.90
2023-04-23T11:49:16.713Z,0.70
2023-04-23T11:51:44.393Z,0.70
2023-04-23T11:54:11.833Z,1.02
2023-04-23T11:56:38.447Z,0.80
2023-04-23T11:59:05.850Z,0.70
2023-04-23T12:01:44.752Z,1.90
2023-04-23T12:04:16.064Z,1.00
2023-04-23T12:09:11.447Z,0.80
2023-04-23T12:11:38.223Z,1.00
2023-04-23T12:14:05.151Z,0.90
2023-04-23T12:16:36.422Z,1.00
2023-04-23T12:19:07.486Z,0.80
2023-04-23T12:21:34.262Z,0.77
2023-04-23T12:24:03.754Z,1.05
2023-04-23T12:26:30.394Z,0.85
2023-04-23T12:29:00.175Z,0.70
2023-04-23T12:31:28.242Z,1.02
2023-04-23T12:34:05.215Z,0.90
2023-04-23T12:36:32.441Z,0.90
2023-04-23T12:39:25.012Z,0.73
2023-04-23T12:41:53.113Z,0.77
2023-04-23T12:44:21.122Z,1.10
2023-04-23T12:46:55.786Z,0.50
2023-04-23T12:49:26.271Z,0.90
2023-04-23T12:51:53.216Z,0.80
2023-04-23T12:54:20.182Z,0.77
2023-04-23T12:56:46.740Z,0.90
2023-04-23T12:59:13.337Z,0.90
2023-04-23T13:01:39.951Z,0.82
2023-04-23T13:04:06.827Z,0.90
2023-04-23T13:06:35.152Z,0.90
2023-04-23T13:09:01.811Z,0.90
2023-04-23T13:11:28.334Z,0.75
2023-04-23T13:13:54.932Z,0.70
2023-04-23T13:16:21.662Z,1.00
2023-04-23T13:18:48.275Z,0.82
2023-04-23T13:21:14.798Z,1.25
2023-04-23T13:23:42.772Z,0.73
2023-04-23T13:26:09.358Z,0.93
2023-04-23T13:28:36.407Z,0.98
2023-04-23T13:31:03.128Z,0.90
2023-04-23T13:33:30.087Z,1.38
2023-04-23T13:35:57.089Z,0.90
2023-04-23T13:38:23.877Z,1.00
2023-04-23T13:40:51.897Z,1.00
2023-04-23T13:43:18.650Z,1.20
2023-04-23T13:45:45.728Z,1.40
2023-04-23T13:48:12.524Z,1.40
2023-04-23T13:50:39.100Z,1.30
2023-04-23T13:53:05.729Z,1.40
2023-04-23T13:55:32.568Z,1.48
2023-04-23T13:58:00.599Z,1.48
2023-04-23T14:00:28.735Z,1.70
2023-04-23T14:02:55.588Z,1.77
2023-04-23T14:05:22.167Z,1.90
2023-04-23T14:07:48.826Z,1.98
2023-04-23T14:10:15.344Z,2.13
2023-04-23T14:12:42.037Z,1.90
2023-04-23T14:15:10.908Z,1.95
2023-04-23T14:17:38.005Z,2.10
2023-04-23T14:20:06.046Z,2.10
2023-04-23T14:22:32.663Z,2.38
2023-04-23T14:25:02.944Z,2.10
2023-04-23T14:27:32.276Z,1.75
2023-04-23T14:30:02.546Z,2.17
2023-04-23T14:32:30.524Z,1.88
2023-04-23T14:34:58.388Z,1.92
2023-04-23T14:37:25.071Z,1.60
2023-04-23T14:39:51.585Z,1.70
2023-04-23T14:42:19.284Z,1.77
2023-04-23T14:44:45.791Z,1.48
2023-04-23T14:47:12.354Z,1.80
2023-04-23T14:49:40.486Z,1.92
2023-04-23T14:52:07.560Z,1.60
2023-04-23T14:54:34.054Z,1.70
2023-04-23T14:57:00.572Z,1.65
2023-04-23T14:59:27.108Z,1.55
2023-04-23T15:01:53.763Z,1.52
2023-04-23T15:04:20.473Z,1.58
2023-04-23T15:06:48.524Z,1.30
2023-04-23T15:09:15.133Z,1.40
2023-04-23T15:11:41.697Z,1.50
2023-04-23T15:14:17.891Z,1.17
2023-04-23T15:16:48.939Z,1.80
2023-04-23T15:19:17.076Z,1.77
2023-04-23T15:21:43.615Z,1.65
2023-04-23T15:24:14.999Z,1.60
2023-04-23T15:26:41.685Z,1.48
2023-04-23T15:29:08.339Z,1.42
2023-04-23T15:31:35.025Z,1.27
2023-04-23T15:34:01.642Z,1.70
2023-04-23T15:36:28.402Z,1.75
2023-04-23T15:38:55.061Z,1.73
2023-04-23T15:41:23.089Z,1.58
2023-04-23T15:43:49.586Z,1.55
2023-04-23T15:46:16.301Z,1.58
2023-04-23T15:48:42.891Z,1.67
2023-04-23T15:51:09.477Z,1.50
2023-04-23T15:53:36.234Z,1.60
2023-04-23T15:56:02.855Z,1.50
2023-04-23T15:58:30.797Z,1.40
2023-04-23T16:00:57.457Z,1.30
2023-04-23T16:03:24.217Z,1.30
2023-04-23T16:05:50.986Z,1.50
2023-04-23T16:08:17.551Z,1.55
2023-04-23T16:10:44.248Z,1.50
2023-04-23T16:13:10.816Z,1.23
2023-04-23T16:15:38.896Z,1.40
2023-04-23T16:18:05.600Z,2.10
2023-04-23T16:20:32.354Z,1.58
2023-04-23T16:22:58.978Z,1.73
2023-04-23T16:25:25.627Z,1.70
2023-04-23T16:27:52.154Z,1.30
2023-04-23T16:30:18.812Z,1.63
2023-04-23T16:32:46.737Z,1.60
2023-04-23T16:35:13.467Z,1.40
2023-04-23T16:37:40.112Z,1.40
2023-04-23T16:40:07.767Z,1.55
2023-04-23T16:42:34.523Z,1.20
2023-04-23T16:45:01.141Z,1.40
2023-04-23T16:47:27.725Z,0.98
2023-04-23T16:49:55.692Z,0.90
2023-04-23T16:52:22.324Z,0.90
2023-04-23T16:54:48.965Z,1.00
2023-04-23T16:57:15.617Z,0.95
2023-04-23T16:59:42.236Z,1.30
2023-04-23T17:02:08.898Z,1.15
2023-04-23T17:04:35.824Z,1.15
2023-04-23T17:07:03.927Z,0.77
2023-04-23T17:09:30.454Z,1.17
2023-04-23T17:11:57.194Z,0.98
2023-04-23T17:14:23.823Z,0.93
2023-04-23T17:16:50.322Z,1.20
2023-04-23T17:19:16.905Z,0.80
2023-04-23T17:21:43.895Z,1.30
2023-04-23T17:24:12.695Z,1.10
2023-04-23T17:26:39.216Z,1.30
2023-04-23T17:29:06.216Z,1.10
2023-04-23T17:31:32.778Z,1.60
2023-04-23T17:33:59.380Z,1.10
2023-04-23T17:36:26.205Z,1.10
2023-04-23T17:38:52.807Z,0.98
2023-04-23T17:41:20.696Z,1.25
2023-04-23T17:43:47.354Z,1.00
2023-04-23T17:46:13.853Z,0.98
2023-04-23T17:48:40.498Z,1.10
2023-04-23T17:51:07.068Z,1.02
2023-04-23T17:53:34.011Z,1.00
2023-04-23T17:56:00.519Z,0.90
2023-04-23T17:58:28.734Z,0.80
2023-04-23T18:00:55.351Z,0.80
2023-04-23T18:03:22.383Z,1.35
2023-04-23T18:05:49.094Z,0.70
2023-04-23T18:08:15.722Z,0.60
2023-04-23T18:10:43.725Z,1.10
2023-04-23T18:13:10.406Z,0.77
2023-04-23T18:15:38.288Z,0.98
2023-04-23T18:18:04.977Z,0.90
2023-04-23T18:20:31.678Z,0.90
2023-04-23T18:22:58.261Z,0.95
2023-04-23T18:25:24.780Z,0.80
2023-04-23T18:27:51.426Z,0.80
2023-04-23T18:30:18.059Z,0.77
2023-04-23T18:32:49.445Z,0.70
2023-04-23T18:35:16.236Z,1.20
2023-04-23T18:37:46.957Z,0.63
2023-04-23T18:40:13.652Z,0.70
2023-04-23T18:42:40.371Z,0.63
2023-04-23T18:45:07.913Z,0.70
2023-04-23T18:47:38.332Z,0.60
2023-04-23T18:50:27.976Z,0.70
2023-04-23T18:52:54.516Z,0.65
2023-04-23T18:55:21.042Z,0.90
2023-04-23T18:57:47.653Z,0.50
2023-04-23T19:00:15.358Z,0.70
2023-04-23T19:02:42.018Z,0.70
2023-04-23T19:05:10.107Z,0.73
2023-04-23T19:07:36.835Z,0.60
2023-04-23T19:10:03.574Z,0.60
2023-04-23T19:12:30.183Z,0.60
2023-04-23T19:14:56.663Z,0.57
2023-04-23T19:17:23.278Z,0.77
2023-04-23T19:19:49.854Z,0.85
2023-04-23T19:22:17.770Z,0.90
2023-04-23T19:24:44.268Z,0.77
2023-04-23T19:27:10.888Z,0.93
2023-04-23T19:29:37.403Z,1.00
2023-04-23T19:32:04.028Z,0.60
2023-04-23T19:34:30.537Z,0.80
2023-04-23T19:36:57.096Z,0.80
2023-04-23T19:39:24.976Z,0.80
2023-04-23T19:41:51.579Z,0.82
2023-04-23T19:44:18.090Z,0.80
2023-04-23T19:46:44.724Z,0.70
2023-04-23T19:49:11.317Z,1.02
2023-04-23T19:51:39.051Z,0.90
2023-04-23T19:54:06.080Z,1.27
2023-04-23T19:56:34.025Z,2.78
2023-04-23T19:59:00.540Z,2.17
2023-04-23T20:01:27.351Z,1.42
2023-04-23T20:03:54.047Z,1.23
2023-04-23T20:06:20.749Z,1.45
2023-04-23T20:08:47.240Z,1.30
2023-04-23T20:11:13.884Z,1.20
2023-04-23T20:13:41.740Z,0.90
2023-04-23T20:16:08.481Z,0.90
2023-04-23T20:18:35.456Z,1.00
2023-04-23T20:21:02.089Z,1.42
2023-04-23T20:23:28.579Z,1.15
2023-04-23T20:25:55.223Z,1.17
2023-04-23T20:28:21.756Z,0.90
2023-04-23T20:30:49.660Z,0.80
2023-04-23T20:33:16.636Z,1.30
2023-04-23T20:35:43.261Z,1.55
2023-04-23T20:38:09.827Z,1.10
2023-04-23T20:40:36.438Z,1.10
2023-04-23T20:43:02.929Z,0.80
2023-04-23T20:45:29.488Z,0.75
2023-04-23T20:47:57.489Z,0.50
2023-04-23T20:50:24.092Z,0.60
2023-04-23T20:52:50.590Z,0.70
2023-04-23T20:55:17.534Z,0.60
2023-04-23T20:57:44.053Z,0.40
2023-04-23T21:00:11.188Z,0.60
2023-04-23T21:02:38.209Z,0.40
2023-04-23T21:05:07.707Z,0.52
2023-04-23T21:07:34.536Z,0.60
2023-04-23T21:10:01.110Z,0.77
2023-04-23T21:12:27.737Z,1.00
2023-04-23T21:14:55.081Z,0.50
2023-04-23T21:17:21.622Z,0.40
2023-04-23T21:19:48.190Z,0.40
2023-04-23T21:22:16.236Z,0.50
2023-04-23T21:24:43.035Z,0.60
2023-04-23T21:27:12.529Z,0.50
2023-04-23T21:29:39.264Z,0.45
2023-04-23T21:32:05.922Z,0.50
2023-04-23T21:34:32.823Z,0.50
2023-04-23T21:36:59.366Z,0.32
2023-04-23T21:39:27.280Z,0.40
2023-04-23T21:41:53.891Z,0.30
2023-04-23T21:44:20.629Z,0.30
2023-04-23T21:46:47.287Z,0.47
2023-04-23T21:49:13.981Z,0.30
2023-04-23T21:51:40.493Z,0.40
2023-04-23T21:54:07.183Z,0.50
2023-04-23T21:56:35.123Z,0.50
2023-04-23T21:59:02.237Z,0.40
2023-04-23T22:01:28.854Z,1.00
2023-04-23T22:03:55.672Z,0.25
2023-04-23T22:06:22.624Z,0.95
2023-04-23T22:08:49.245Z,0.50
2023-04-23T22:11:15.794Z,0.80
2023-04-23T22:13:43.847Z,0.50
2023-04-23T22:16:24.569Z,0.40
2023-04-23T22:18:54.573Z,0.47
2023-04-23T22:21:21.135Z,0.40
2023-04-23T22:23:47.781Z,0.40
2023-04-23T22:26:14.284Z,0.32
2023-04-23T22:28:44.048Z,0.40
2023-04-23T22:31:10.942Z,0.40
2023-04-23T22:33:37.507Z,0.30
2023-04-23T22:36:04.493Z,0.50
2023-04-23T22:38:31.067Z,0.30
2023-04-23T22:40:57.556Z,0.60
2023-04-23T22:43:24.120Z,0.40
2023-04-23T22:45:51.994Z,0.50
2023-04-23T22:48:18.609Z,0.43
2023-04-23T22:50:45.148Z,0.45
2023-04-23T22:53:11.729Z,0.40
2023-04-23T22:55:38.528Z,0.40
2023-04-23T22:58:05.131Z,0.65
2023-04-23T23:00:31.751Z,0.50
2023-04-23T23:02:59.794Z,0.40
2023-04-23T23:05:26.321Z,0.40
2023-04-23T23:07:52.951Z,0.47
2023-04-23T23:10:21.417Z,0.50
2023-04-23T23:12:49.358Z,0.55
2023-04-23T23:15:15.902Z,0.50
2023-04-23T23:17:42.556Z,0.40
2023-04-23T23:20:11.289Z,0.52
2023-04-23T23:22:37.928Z,0.60
2023-04-23T23:25:05.975Z,0.43
2023-04-23T23:27:32.559Z,0.90
2023-04-23T23:29:59.043Z,0.45
2023-04-23T23:32:25.691Z,0.50
2023-04-23T23:34:52.364Z,0.43
2023-04-23T23:37:20.285Z,0.55
2023-04-23T23:39:46.789Z,0.90
2023-04-23T23:42:13.483Z,0.45
2023-04-23T23:44:39.988Z,0.35
2023-04-23T23:47:06.759Z,0.40
2023-04-23T23:49:33.538Z,0.40
2023-04-23T23:52:00.167Z,0.77
2023-04-23T23:54:28.031Z,1.08
2023-04-23T23:56:54.671Z,0.80
2023-04-23T23:59:21.169Z,0.60
